Terminal Aerodrome Forecast
Issued by NWS

Home | Current Version | Previous Version | Text Only | Print | Product List | Glossary On
Versions: 1 2 3 4 5 6 7 8 9 10 11 12 13 14 15 16 17 18 19 20 21 22 23 24 25 26 27 28 29 30 31 32 33 34 35 36
409
FTUS41 KOKX 010244 AAB
TAFGON
TAF AMD
KGON 010244Z 0103/0124 VRB03KT P6SM SKC
     FM011200 03006KT P6SM FEW250
     FM011500 07008KT P6SM FEW250
     FM011800 14008KT P6SM FEW250=

USA.gov is the U.S. government's official web portal to all federal, state and local government web resources and services.